• Join FlightAware (Why Join?)
  • Login
  • US Flag 
10:23PM EST


 

Airport Tracker/Info


-or-


 

Live Flight TrackerFlight Track Log ✈ N479SA ✈ 13-May-2013 ✈ KESC - KLAN

Flight Track Log - Related Links

Times and Time Zones

All times are in EDT time to prevent confusion due to time zone crossing. See the N479SA flight status page for this flight to view local times or setup timezone preferences in your user account.

Time Position Orientation Groundspeed Altitude Reporting Facility
EDT Latitude Longitude Course Direction KTS MPH feet Rate Location/Type
07:26PM 45.6456 -87.0239 145° Southeast 127 146 4,000  Level Minneapolis Center
07:27PM 45.6086 -86.9947 151° Southeast 138 159 5,100 1,200 Climbing Minneapolis Center
07:28PM 45.5653 -86.9519 145° Southeast 150 173 6,500 1,200 Climbing Minneapolis Center
07:29PM 45.5267 -86.9161 147° Southeast 158 182 7,600 1,080 Climbing Minneapolis Center
07:30PM 45.4861 -86.8811 149° Southeast 165 190 8,800 1,020 Climbing Minneapolis Center
07:31PM 45.4218 -86.8234 145° Southeast  Level Estimated
07:31PM 45.4442 -86.8439 148° Southeast 171 197 9,800  Level Minneapolis Center
07:32PM 45.4031 -86.8025 145° Southeast 178 205 11,000 1,020 Climbing Minneapolis Center
07:33PM 45.3581 -86.7639 149° Southeast 186 214 12,000 960 Climbing Minneapolis Center
07:34PM 45.3147 -86.7256 148° Southeast 185 213 13,000 1,020 Climbing Minneapolis Center
07:35PM 45.2600 -86.6783 149° Southeast 191 220 14,200 960 Climbing Minneapolis Center
07:36PM 45.2136 -86.6372 148° Southeast 196 226 15,000 720 Climbing Minneapolis Center
07:37PM 45.1667 -86.5944 147° Southeast 205 236 15,700 540 Climbing Minneapolis Center
07:38PM 45.1192 -86.5542 149° Southeast 202 232 16,200 480 Climbing Minneapolis Center
07:39PM 45.0706 -86.5097 147° Southeast 208 239 16,700 480 Climbing Minneapolis Center
07:40PM 45.0206 -86.4661 148° Southeast 212 244 17,200 480 Climbing Minneapolis Center
07:41PM 44.9700 -86.4217 148° Southeast 215 247 17,700 360 Climbing Minneapolis Center
07:42PM 44.9089 -86.3681 148° Southeast 218 251 18,000 360 Climbing Minneapolis Center
07:43PM 44.8556 -86.3225 149° Southeast 224 258 18,500 480 Climbing Minneapolis Center
07:44PM 44.8017 -86.2731 147° Southeast 230 265 19,000 240 Climbing Minneapolis Center
07:45PM 44.7464 -86.2261 149° Southeast 230 265 19,000  Level Minneapolis Center
07:46PM 44.6850 -86.1764 150° Southeast 245 282 19,000  Level Minneapolis Center
07:47PM 44.6158 -86.1136 147° Southeast 255 293 19,000  Level Minneapolis Center
07:48PM 44.5528 -86.0597 149° Southeast 264 304 19,000  Level Minneapolis Center
07:49PM 44.4897 -86.0058 149° Southeast 267 307 19,000  Level Minneapolis Center
07:50PM 44.4269 -85.9511 148° Southeast 266 306 19,000  Level Minneapolis Center
07:51PM 44.3633 -85.8964 148° Southeast 270 311 19,000  Level Minneapolis Center
07:52PM 44.2994 -85.8431 149° Southeast 269 310 19,000  Level Minneapolis Center
07:53PM 44.2231 -85.7778 149° Southeast 268 308 19,000  Level Minneapolis Center
07:54PM 44.1597 -85.7225 148° Southeast 269 310 19,000  Level Minneapolis Center
07:55PM 44.0961 -85.6683 149° Southeast 269 310 19,000  Level Minneapolis Center
07:56PM 44.0400 -85.6219 149° Southeast 268 308 19,000  Level Minneapolis Center
07:57PM 43.9631 -85.5592 150° Southeast 268 308 19,000  Level Minneapolis Center
07:58PM 43.8994 -85.5039 148° Southeast 269 310 19,000 -60 Level Minneapolis Center
07:59PM 43.8342 -85.4503 149° Southeast 271 312 18,900 -600 Descending Minneapolis Center
08:00PM 43.7650 -85.3950 150° Southeast 280 322 17,800 -1,020 Descending Minneapolis Center
08:02PM 43.6933 -85.3319 148° Southeast 298 343 16,800 -840 Descending Minneapolis Center
08:03PM 43.6256 -85.2736 148° Southeast 293 337 16,200 -780 Descending Minneapolis Center
08:04PM 43.5581 -85.2206 150° Southeast 283 326 15,300 -1,020 Descending Minneapolis Center
08:05PM 43.4775 -85.1536 149° Southeast 282 325 14,100 -1,080 Descending Minneapolis Center
08:07PM 43.3169 -85.0183 148° Southeast 279 321 11,600 -1,080 Descending Chicago Center